Time;durP1;ratioP1;P1;durP2;ratioP2;P2;SDS_P1;SDS_P2;PMS_P1;PMS_P2;Temp;Humidity;BMP_temperature;BMP_pressure;BME280_temperature;BME280_humidity;BME280_pressure;Samples;Min_cycle;Max_cycle;Signal;HPM_P1;HPM_P2
2022/03/03 00:01:10;;;;;;;15.10;8.57;;;6.20;88.10;;;;;;5023876;28;20206;-79
2022/03/03 00:03:39;;;;;;;14.43;8.80;;;6.10;88.30;;;;;;5019679;28;21476;-79
2022/03/03 00:06:09;;;;;;;15.40;9.43;;;6.10;88.20;;;;;;5018127;28;20920;-79
2022/03/03 00:08:37;;;;;;;15.60;8.83;;;6.10;88.10;;;;;;5019713;28;20211;-79
2022/03/03 00:11:05;;;;;;;19.17;9.00;;;6.20;88.20;;;;;;5023331;28;20204;-79
2022/03/03 00:13:34;;;;;;;16.23;9.63;;;6.20;88.30;;;;;;5022365;28;20200;-79
2022/03/03 00:16:04;;;;;;;15.50;8.63;;;6.20;88.30;;;;;;5023177;28;20219;-79
2022/03/03 00:18:32;;;;;;;15.67;8.77;;;6.10;88.40;;;;;;5021339;28;20261;-80
2022/03/03 00:21:00;;;;;;;16.40;10.03;;;6.10;88.40;;;;;;5020451;28;20260;-79
2022/03/03 00:23:30;;;;;;;15.67;9.27;;;6.10;88.50;;;;;;5022651;28;20199;-79
2022/03/03 00:25:58;;;;;;;18.83;10.33;;;6.10;88.50;;;;;;5021990;28;20230;-78
2022/03/03 00:28:27;;;;;;;16.43;9.83;;;6.10;88.60;;;;;;5021688;28;20200;-80
2022/03/03 00:30:56;;;;;;;16.77;10.20;;;6.20;88.60;;;;;;5021666;28;20660;-79
2022/03/03 00:33:24;;;;;;;17.23;10.27;;;6.10;88.70;;;;;;5019400;28;20436;-78
2022/03/03 00:35:52;;;;;;;17.13;9.43;;;6.10;88.60;;;;;;5020097;28;20267;-79
2022/03/03 00:38:21;;;;;;;19.53;9.97;;;6.10;88.60;;;;;;5022125;28;20680;-79
2022/03/03 00:40:50;;;;;;;20.17;9.60;;;6.10;88.80;;;;;;5020836;28;20203;-79
2022/03/03 00:43:19;;;;;;;15.67;9.43;;;6.10;88.90;;;;;;5022379;28;20210;-79
2022/03/03 00:45:49;;;;;;;18.87;10.83;;;6.00;89.00;;;;;;5023706;28;20738;-79
2022/03/03 00:48:18;;;;;;;16.53;9.63;;;6.00;89.10;;;;;;5026839;28;20263;-79
2022/03/03 00:50:46;;;;;;;16.27;10.13;;;6.00;89.20;;;;;;5025913;28;20199;-79
2022/03/03 00:53:14;;;;;;;17.47;10.13;;;6.00;89.40;;;;;;5026648;28;20218;-79
2022/03/03 00:55:42;;;;;;;16.53;9.17;;;5.90;89.30;;;;;;5024832;28;20203;-79
2022/03/03 00:58:12;;;;;;;15.33;9.33;;;5.90;89.40;;;;;;5025874;28;20202;-79
2022/03/03 01:00:41;;;;;;;14.93;9.17;;;5.90;89.20;;;;;;5025587;28;20199;-79
2022/03/03 01:03:09;;;;;;;18.13;10.33;;;5.90;89.50;;;;;;5026331;28;20705;-80
2022/03/03 01:05:38;;;;;;;18.07;10.40;;;5.80;89.50;;;;;;5024608;28;20219;-79
2022/03/03 01:08:10;;;;;;;17.50;9.93;;;5.80;89.60;;;;;;5024672;28;20261;-79
2022/03/03 01:10:38;;;;;;;17.77;9.50;;;5.80;90.10;;;;;;5025645;28;20286;-79
2022/03/03 01:13:07;;;;;;;16.70;9.00;;;5.80;89.60;;;;;;5025309;28;20198;-79
2022/03/03 01:15:36;;;;;;;15.87;9.40;;;5.80;89.50;;;;;;5025983;28;20192;-79
2022/03/03 01:18:06;;;;;;;17.87;9.93;;;5.80;89.70;;;;;;5026130;28;21856;-79
2022/03/03 01:20:35;;;;;;;17.40;10.03;;;5.90;90.20;;;;;;5025116;28;20203;-77
2022/03/03 01:23:04;;;;;;;15.83;9.60;;;5.80;89.60;;;;;;5023957;28;20214;-79
2022/03/03 01:25:32;;;;;;;18.03;10.00;;;5.80;89.70;;;;;;5024118;28;20234;-79
2022/03/03 01:28:01;;;;;;;17.97;10.03;;;5.80;89.80;;;;;;5025394;28;20212;-78
2022/03/03 01:30:29;;;;;;;18.10;10.23;;;5.80;89.90;;;;;;5023701;28;20195;-79
2022/03/03 01:32:59;;;;;;;16.63;9.40;;;5.80;90.00;;;;;;5026278;28;20202;-78
2022/03/03 01:35:27;;;;;;;16.70;10.10;;;5.70;90.00;;;;;;5024618;28;20196;-77
2022/03/03 01:37:56;;;;;;;17.70;9.60;;;5.70;90.00;;;;;;5024487;28;20616;-77
2022/03/03 01:40:25;;;;;;;17.83;10.40;;;5.70;89.90;;;;;;5024933;28;20202;-78
2022/03/03 01:42:54;;;;;;;18.77;9.53;;;5.70;90.00;;;;;;5026126;28;20766;-78
2022/03/03 01:45:22;;;;;;;19.07;10.73;;;5.80;90.00;;;;;;5024164;28;20745;-79
2022/03/03 01:47:50;;;;;;;18.80;10.40;;;5.80;90.00;;;;;;5024454;28;20210;-80
2022/03/03 01:50:20;;;;;;;18.07;9.93;;;5.80;90.00;;;;;;5023186;28;20199;-79
2022/03/03 01:52:48;;;;;;;23.13;10.17;;;5.80;90.00;;;;;;5025184;28;20215;-78
2022/03/03 01:55:17;;;;;;;19.07;9.87;;;5.80;90.10;;;;;;5025545;28;20199;-78
2022/03/03 01:57:49;;;;;;;20.40;10.20;;;5.80;90.00;;;;;;5023205;28;20213;-78
2022/03/03 02:00:19;;;;;;;18.60;9.97;;;5.80;90.00;;;;;;5024140;28;20202;-78
2022/03/03 02:02:48;;;;;;;20.23;10.70;;;5.80;90.10;;;;;;5023770;28;20600;-78
2022/03/03 02:05:16;;;;;;;19.50;10.20;;;5.90;90.10;;;;;;5022072;28;20316;-78
2022/03/03 02:07:46;;;;;;;18.80;10.70;;;5.90;90.10;;;;;;5023595;28;20196;-78
2022/03/03 02:10:14;;;;;;;17.10;10.33;;;5.90;90.00;;;;;;5025974;28;20207;-78
2022/03/03 02:12:43;;;;;;;20.70;10.83;;;5.90;90.00;;;;;;5024861;28;20224;-77
2022/03/03 02:15:17;;;;;;;20.17;10.47;;;6.00;90.00;;;;;;5025500;28;20214;-78
2022/03/03 02:17:46;;;;;;;19.43;10.53;;;6.00;90.00;;;;;;5025155;28;20765;-79
2022/03/03 02:20:23;;;;;;;20.83;10.60;;;6.00;90.00;;;;;;5023940;28;20300;-79
2022/03/03 02:22:52;;;;;;;26.30;10.43;;;5.90;90.00;;;;;;5023689;28;20560;-78
2022/03/03 02:25:21;;;;;;;22.00;10.97;;;5.90;90.00;;;;;;5023643;28;20219;-79
2022/03/03 02:27:50;;;;;;;22.87;11.33;;;5.90;90.00;;;;;;5024768;28;20209;-77
2022/03/03 02:30:20;;;;;;;23.67;10.80;;;5.90;90.00;;;;;;5024708;28;20619;-77
2022/03/03 02:32:48;;;;;;;21.13;11.00;;;5.90;90.00;;;;;;5024199;28;20206;-78
2022/03/03 02:35:17;;;;;;;23.92;13.00;;;5.90;90.00;;;;;;5023619;28;20460;-78
2022/03/03 02:37:47;;;;;;;22.60;10.70;;;5.90;90.10;;;;;;5024610;28;20215;-77
2022/03/03 02:40:20;;;;;;;22.57;11.07;;;6.00;90.20;;;;;;5024437;28;20196;-78
2022/03/03 02:42:49;;;;;;;29.27;12.27;;;6.00;90.20;;;;;;5023786;28;20198;-78
2022/03/03 02:45:18;;;;;;;27.47;11.20;;;6.00;90.10;;;;;;5025320;28;20257;-78
2022/03/03 02:47:49;;;;;;;22.40;11.17;;;6.00;90.10;;;;;;5022754;28;20867;-78
2022/03/03 02:50:20;;;;;;;30.37;12.10;;;6.00;90.00;;;;;;5024444;28;20198;-78
2022/03/03 02:52:49;;;;;;;27.70;12.13;;;6.00;90.00;;;;;;5020820;28;20223;-78
2022/03/03 02:55:18;;;;;;;28.50;12.47;;;6.00;90.00;;;;;;5024117;28;20199;-78
2022/03/03 02:57:56;;;;;;;28.90;12.63;;;6.00;90.00;;;;;;5022475;28;20207;-79
2022/03/03 03:00:26;;;;;;;28.17;12.30;;;6.00;90.00;;;;;;5024559;28;20194;-79
2022/03/03 03:02:55;;;;;;;40.73;13.30;;;6.00;90.00;;;;;;5023669;28;20711;-78
2022/03/03 03:05:24;;;;;;;30.77;12.63;;;6.00;90.00;;;;;;5023917;28;20215;-78
2022/03/03 03:07:54;;;;;;;29.57;12.50;;;6.00;90.00;;;;;;5022550;28;20200;-78
2022/03/03 03:10:23;;;;;;;30.10;13.00;;;6.00;90.00;;;;;;5024245;28;20211;-78
2022/03/03 03:12:51;;;;;;;33.63;14.70;;;6.10;90.00;;;;;;5023077;28;20202;-78
2022/03/03 03:15:20;;;;;;;26.87;12.83;;;6.10;90.00;;;;;;5024491;28;20202;-78
2022/03/03 03:17:48;;;;;;;28.83;13.03;;;6.10;90.00;;;;;;5024045;28;20817;-78
2022/03/03 03:20:17;;;;;;;31.13;13.73;;;6.10;90.00;;;;;;5024165;28;20209;-77
2022/03/03 03:22:45;;;;;;;27.57;12.57;;;6.10;90.00;;;;;;5024742;28;20210;-77
2022/03/03 03:25:15;;;;;;;32.43;13.67;;;6.10;89.90;;;;;;5024028;28;20222;-78
2022/03/03 03:27:44;;;;;;;30.90;13.67;;;6.10;89.90;;;;;;5024711;28;20207;-78
2022/03/03 03:30:13;;;;;;;34.23;14.43;;;6.10;89.80;;;;;;5022040;28;20215;-78
2022/03/03 03:32:42;;;;;;;25.00;12.63;;;6.20;89.90;;;;;;5023749;28;20694;-77
2022/03/03 03:35:10;;;;;;;36.10;15.07;;;6.20;89.70;;;;;;5023973;28;20208;-77
2022/03/03 03:37:39;;;;;;;30.13;13.60;;;6.20;89.70;;;;;;5023621;28;20225;-78
2022/03/03 03:40:09;;;;;;;27.63;13.67;;;6.20;89.70;;;;;;5022263;28;20204;-78
2022/03/03 03:42:39;;;;;;;33.37;13.90;;;6.20;89.70;;;;;;5023524;28;20200;-78
2022/03/03 03:45:08;;;;;;;33.07;13.73;;;6.20;89.70;;;;;;5023083;28;20259;-78
2022/03/03 03:47:37;;;;;;;29.93;13.93;;;6.20;89.70;;;;;;5022194;28;20208;-78
2022/03/03 03:50:08;;;;;;;30.47;14.17;;;6.20;89.70;;;;;;5023490;28;20206;-78
2022/03/03 03:52:37;;;;;;;31.03;13.63;;;6.20;89.60;;;;;;5022685;28;20195;-78
2022/03/03 03:55:07;;;;;;;26.30;13.30;;;6.10;89.40;;;;;;5023025;28;20214;-78
2022/03/03 03:57:36;;;;;;;27.37;13.40;;;6.20;89.40;;;;;;5023618;28;20259;-78
2022/03/03 04:00:09;;;;;;;35.50;13.70;;;6.20;89.50;;;;;;5024302;28;20676;-77
2022/03/03 04:02:37;;;;;;;25.70;12.57;;;6.20;89.40;;;;;;4986421;28;20233;-78
2022/03/03 04:05:07;;;;;;;26.37;13.67;;;6.20;89.40;;;;;;5016024;28;20231;-78
2022/03/03 04:07:35;;;;;;;32.93;13.53;;;6.20;89.30;;;;;;5022604;28;20211;-78
2022/03/03 04:10:04;;;;;;;29.20;14.27;;;6.20;89.30;;;;;;5022742;28;20199;-77
2022/03/03 04:12:33;;;;;;;31.67;13.80;;;6.20;89.30;;;;;;5022920;28;20211;-78
2022/03/03 04:15:01;;;;;;;38.40;13.20;;;6.20;89.30;;;;;;5022521;28;20203;-78
2022/03/03 04:17:32;;;;;;;32.10;13.60;;;6.20;89.20;;;;;;5021821;28;20865;-79
2022/03/03 04:20:06;;;;;;;25.83;14.13;;;6.20;89.20;;;;;;5023562;28;20256;-78
2022/03/03 04:22:34;;;;;;;42.47;15.20;;;6.30;89.20;;;;;;5027072;28;20571;-78
2022/03/03 04:25:04;;;;;;;27.33;12.80;;;6.30;89.10;;;;;;5026386;28;20224;-78
2022/03/03 04:27:33;;;;;;;25.73;12.80;;;6.30;89.00;;;;;;5025505;28;20203;-77
2022/03/03 04:30:01;;;;;;;27.27;13.63;;;6.20;88.80;;;;;;5026696;28;20202;-79
2022/03/03 04:32:31;;;;;;;29.77;13.33;;;6.30;88.80;;;;;;5025692;28;20198;-79
2022/03/03 04:35:00;;;;;;;30.20;13.60;;;6.30;88.80;;;;;;5024678;28;20230;-79
2022/03/03 04:37:29;;;;;;;38.93;14.03;;;6.30;88.70;;;;;;5026049;28;20217;-77
2022/03/03 04:39:59;;;;;;;31.30;13.63;;;6.30;88.70;;;;;;5026261;28;20199;-78
2022/03/03 04:42:27;;;;;;;29.47;13.50;;;6.30;88.60;;;;;;5027044;28;20208;-78
2022/03/03 04:44:56;;;;;;;27.93;12.77;;;6.30;88.40;;;;;;5027867;28;20249;-78
2022/03/03 04:47:24;;;;;;;33.37;13.10;;;6.30;88.30;;;;;;5025734;28;20306;-78
2022/03/03 04:49:54;;;;;;;25.30;12.27;;;6.30;88.30;;;;;;5025854;28;20238;-79
2022/03/03 04:52:22;;;;;;;41.70;13.23;;;6.30;88.30;;;;;;5027891;28;20206;-77
2022/03/03 04:54:51;;;;;;;37.50;13.70;;;6.30;88.10;;;;;;5024978;28;20207;-79
2022/03/03 04:57:19;;;;;;;31.77;12.63;;;6.30;88.10;;;;;;5028274;28;21055;-77
2022/03/03 04:59:47;;;;;;;21.67;11.80;;;6.30;88.00;;;;;;5027332;28;20195;-78
2022/03/03 05:02:16;;;;;;;30.73;11.67;;;6.30;87.70;;;;;;5026539;28;20246;-79
2022/03/03 05:04:44;;;;;;;24.70;11.93;;;6.30;87.50;;;;;;5026490;28;21027;-78
2022/03/03 05:07:14;;;;;;;27.43;11.97;;;6.30;87.40;;;;;;5028200;28;20232;-78
2022/03/03 05:09:42;;;;;;;27.47;12.47;;;6.30;87.40;;;;;;5029500;28;20723;-78
2022/03/03 05:12:11;;;;;;;23.03;12.60;;;6.30;87.30;;;;;;5027559;28;20203;-77
2022/03/03 05:14:39;;;;;;;28.53;12.13;;;6.30;87.20;;;;;;5027622;28;20241;-78
2022/03/03 05:17:07;;;;;;;23.70;12.90;;;6.30;87.10;;;;;;5024824;28;20207;-78
2022/03/03 05:19:36;;;;;;;25.13;11.70;;;6.30;87.10;;;;;;5026532;28;20222;-78
2022/03/03 05:22:04;;;;;;;19.73;11.77;;;6.30;87.10;;;;;;5025599;28;20214;-78
2022/03/03 05:24:34;;;;;;;25.50;12.83;;;6.30;86.90;;;;;;5025952;28;20195;-78
2022/03/03 05:27:03;;;;;;;29.77;12.57;;;6.30;86.80;;;;;;5025049;28;20680;-78
2022/03/03 05:29:31;;;;;;;25.90;12.53;;;6.30;86.70;;;;;;5026200;28;22047;-79
2022/03/03 05:31:59;;;;;;;29.00;12.47;;;6.30;86.80;;;;;;5027361;28;20662;-77
2022/03/03 05:34:28;;;;;;;28.60;13.73;;;6.30;86.90;;;;;;5024774;28;20566;-78
2022/03/03 05:36:56;;;;;;;26.53;12.57;;;6.30;86.90;;;;;;5025753;28;21601;-78
2022/03/03 05:39:24;;;;;;;26.27;12.73;;;6.30;86.90;;;;;;5024812;28;20201;-78
2022/03/03 05:41:57;;;;;;;26.93;12.93;;;6.30;86.80;;;;;;5025337;28;20200;-78
2022/03/03 05:44:25;;;;;;;32.97;12.63;;;6.30;86.90;;;;;;5024259;28;20216;-79
2022/03/03 05:46:53;;;;;;;33.33;14.32;;;6.30;86.80;;;;;;5027502;28;20488;-79
2022/03/03 05:49:23;;;;;;;25.67;12.97;;;6.30;88.00;;;;;;5026302;28;20203;-81
2022/03/03 05:51:52;;;;;;;26.37;11.67;;;6.30;87.10;;;;;;5027088;28;20198;-77
2022/03/03 05:54:20;;;;;;;23.23;11.83;;;6.40;86.90;;;;;;5024508;28;20207;-78
2022/03/03 05:56:52;;;;;;;26.80;11.50;;;6.30;86.50;;;;;;5024557;28;20200;-80
2022/03/03 05:59:23;;;;;;;27.40;11.87;;;6.30;86.30;;;;;;5027354;28;20262;-78
2022/03/03 06:01:53;;;;;;;23.90;11.57;;;6.30;86.30;;;;;;5024380;28;20295;-77
2022/03/03 06:04:28;;;;;;;30.93;13.93;;;6.30;86.20;;;;;;5045583;28;20199;-76
2022/03/03 06:07:08;;;;;;;33.43;13.43;;;6.30;86.20;;;;;;5043745;28;20217;-77
2022/03/03 06:09:38;;;;;;;39.17;13.70;;;6.30;86.10;;;;;;5044130;28;20758;-77
2022/03/03 06:12:20;;;;;;;38.20;13.80;;;6.20;86.00;;;;;;5043506;28;20199;-77
2022/03/03 06:14:53;;;;;;;24.73;12.83;;;6.20;86.10;;;;;;5044165;28;20201;-77
2022/03/03 06:17:25;;;;;;;35.03;13.70;;;6.20;86.00;;;;;;5042481;28;20206;-78
2022/03/03 06:19:54;;;;;;;34.43;12.20;;;6.20;85.80;;;;;;5044493;28;20652;-75
2022/03/03 06:22:23;;;;;;;38.07;14.00;;;6.20;85.80;;;;;;5042883;28;20195;-77
2022/03/03 06:24:51;;;;;;;24.90;12.73;;;6.20;85.90;;;;;;5044828;28;20210;-76
2022/03/03 06:27:24;;;;;;;30.47;12.83;;;6.20;86.00;;;;;;5043750;28;20211;-77
2022/03/03 06:29:55;;;;;;;29.63;13.23;;;6.20;86.00;;;;;;5044940;28;20260;-77
2022/03/03 06:32:24;;;;;;;28.30;12.47;;;6.20;86.00;;;;;;5044113;28;20669;-75
2022/03/03 06:34:52;;;;;;;25.80;13.27;;;6.20;86.80;;;;;;5044605;28;20213;-76
2022/03/03 06:37:20;;;;;;;33.60;14.30;;;6.20;86.10;;;;;;5045089;28;20198;-77
2022/03/03 06:39:49;;;;;;;42.03;13.87;;;6.20;86.30;;;;;;5045521;28;20271;-77
2022/03/03 06:42:17;;;;;;;25.63;13.13;;;6.30;86.30;;;;;;5044135;28;20206;-77
2022/03/03 06:44:45;;;;;;;27.10;13.30;;;6.30;86.40;;;;;;5043882;28;20260;-76
2022/03/03 06:47:16;;;;;;;36.60;14.93;;;6.30;86.50;;;;;;5041991;28;20779;-79
2022/03/03 06:49:44;;;;;;;35.73;14.80;;;6.30;86.40;;;;;;5044497;28;20344;-76
2022/03/03 06:52:16;;;;;;;28.40;14.83;;;6.30;86.40;;;;;;5044823;28;20202;-77
2022/03/03 06:54:46;;;;;;;35.07;15.20;;;6.40;86.40;;;;;;5042094;28;20191;-77
2022/03/03 06:57:18;;;;;;;31.77;14.00;;;6.40;86.30;;;;;;5042766;28;20209;-77
2022/03/03 06:59:48;;;;;;;24.17;14.30;;;6.50;86.30;;;;;;5044287;28;20201;-78
2022/03/03 07:02:20;;;;;;;34.23;15.30;;;6.50;86.20;;;;;;5042622;28;20222;-78
2022/03/03 07:04:49;;;;;;;35.77;14.80;;;6.60;86.20;;;;;;5042114;28;20195;-77
2022/03/03 07:07:18;;;;;;;25.93;14.37;;;6.60;86.10;;;;;;5043194;28;20214;-75
2022/03/03 07:09:46;;;;;;;30.73;15.37;;;6.60;86.10;;;;;;5043971;28;20191;-76
2022/03/03 07:12:16;;;;;;;28.20;13.93;;;6.70;86.30;;;;;;5042105;28;20230;-79
2022/03/03 07:14:45;;;;;;;29.53;14.77;;;6.70;86.10;;;;;;5043680;28;20199;-77
2022/03/03 07:17:20;;;;;;;33.70;16.98;;;6.70;86.30;;;;;;5041973;28;21221;-76
2022/03/03 07:19:56;;;;;;;35.40;17.20;;;6.70;86.40;;;;;;5044812;28;20199;-76
2022/03/03 07:22:34;;;;;;;30.90;16.47;;;6.70;86.80;;;;;;5043135;28;20260;-76
2022/03/03 07:25:06;;;;;;;30.87;16.27;;;6.80;86.80;;;;;;5041918;28;20207;-78
2022/03/03 07:27:36;;;;;;;34.23;16.30;;;6.80;86.70;;;;;;5041966;28;20218;-75
2022/03/03 07:30:07;;;;;;;29.93;16.10;;;6.80;86.80;;;;;;5044191;28;20227;-77
2022/03/03 07:32:39;;;;;;;28.43;15.10;;;6.90;86.70;;;;;;5042638;28;20203;-77
2022/03/03 07:35:12;;;;;;;35.30;17.37;;;7.00;86.70;;;;;;5041967;28;20206;-78
2022/03/03 07:37:48;;;;;;;31.30;16.87;;;7.00;86.70;;;;;;5042583;28;20201;-78
2022/03/03 07:40:17;;;;;;;36.13;17.17;;;7.10;86.70;;;;;;5044349;28;20195;-77
2022/03/03 07:42:46;;;;;;;38.10;17.40;;;7.10;86.70;;;;;;5043034;28;20193;-78
2022/03/03 07:45:14;;;;;;;32.30;16.77;;;7.10;86.60;;;;;;5042991;28;20208;-77
2022/03/03 07:47:44;;;;;;;37.03;19.07;;;7.20;86.60;;;;;;5043578;28;20221;-78
2022/03/03 07:50:12;;;;;;;37.20;17.70;;;7.20;86.40;;;;;;5043250;28;20690;-77
2022/03/03 07:52:45;;;;;;;40.13;18.73;;;7.30;86.40;;;;;;5042169;28;20208;-77
2022/03/03 07:55:14;;;;;;;37.87;19.10;;;7.30;86.20;;;;;;5040480;28;20578;-78
2022/03/03 07:57:59;;;;;;;37.87;17.73;;;7.40;86.10;;;;;;5042503;28;20199;-78
2022/03/03 08:00:30;;;;;;;36.30;18.67;;;7.50;85.90;;;;;;5042571;28;20281;-78
2022/03/03 08:03:01;;;;;;;34.47;18.10;;;7.60;85.80;;;;;;5042455;28;20789;-78
2022/03/03 08:05:30;;;;;;;32.27;17.33;;;7.60;85.90;;;;;;5042649;28;20315;-77
2022/03/03 08:08:02;;;;;;;34.70;17.87;;;7.70;85.60;;;;;;5041807;28;20252;-77
2022/03/03 08:10:32;;;;;;;36.50;18.60;;;7.70;85.60;;;;;;5043228;28;20196;-78
2022/03/03 08:13:02;;;;;;;34.13;18.20;;;7.80;85.60;;;;;;5043736;28;20204;-77
2022/03/03 08:15:31;;;;;;;31.67;16.83;;;7.80;85.50;;;;;;5042769;28;20209;-79
2022/03/03 08:18:01;;;;;;;33.63;16.73;;;7.80;85.50;;;;;;5042869;28;20198;-78
2022/03/03 08:20:30;;;;;;;31.23;17.83;;;7.90;85.60;;;;;;5044331;28;20875;-79
2022/03/03 08:23:01;;;;;;;32.63;17.83;;;7.90;85.00;;;;;;5041148;28;20209;-78
2022/03/03 08:25:30;;;;;;;35.70;17.20;;;8.00;84.80;;;;;;5042460;28;20202;-78
2022/03/03 08:27:58;;;;;;;36.47;18.37;;;8.10;84.70;;;;;;5042605;28;20225;-79
2022/03/03 08:30:27;;;;;;;30.60;18.40;;;8.30;84.80;;;;;;5042573;28;20226;-77
2022/03/03 08:33:03;;;;;;;32.07;18.23;;;8.40;84.70;;;;;;5043574;28;20218;-79
2022/03/03 08:35:36;;;;;;;33.17;19.03;;;8.50;84.20;;;;;;5043511;28;20198;-76
2022/03/03 08:38:07;;;;;;;32.00;18.33;;;8.60;83.70;;;;;;5042469;28;20198;-78
2022/03/03 08:40:37;;;;;;;35.13;18.57;;;8.60;83.60;;;;;;5042321;28;20205;-78
2022/03/03 08:43:07;;;;;;;36.60;18.47;;;8.70;83.00;;;;;;5043225;28;20554;-78
2022/03/03 08:45:36;;;;;;;38.63;18.87;;;8.70;83.10;;;;;;5041692;28;20205;-80
2022/03/03 08:48:07;;;;;;;36.23;19.07;;;8.80;82.50;;;;;;5042495;28;20222;-78
2022/03/03 08:50:38;;;;;;;38.93;19.53;;;8.90;82.50;;;;;;5042051;28;20187;-79
2022/03/03 08:53:09;;;;;;;35.77;19.60;;;8.90;82.20;;;;;;5042783;28;20201;-78
2022/03/03 08:55:39;;;;;;;36.70;19.30;;;9.00;81.90;;;;;;5041921;28;20198;-78
2022/03/03 08:58:10;;;;;;;33.83;18.43;;;9.00;81.30;;;;;;5041467;28;20199;-79
2022/03/03 09:00:39;;;;;;;31.67;18.43;;;9.10;81.20;;;;;;5042048;28;20226;-79
2022/03/03 09:03:08;;;;;;;33.60;18.33;;;9.20;80.50;;;;;;5041661;28;20222;-80
2022/03/03 09:05:37;;;;;;;36.00;18.93;;;9.30;80.50;;;;;;5042227;28;20460;-79
2022/03/03 09:08:05;;;;;;;31.87;17.57;;;9.40;79.70;;;;;;5045964;28;20723;-78
2022/03/03 09:10:34;;;;;;;38.00;18.43;;;9.40;79.70;;;;;;5046721;28;20724;-78
2022/03/03 09:13:02;;;;;;;33.00;19.93;;;9.50;79.70;;;;;;5045928;28;20729;-79
2022/03/03 09:15:31;;;;;;;33.67;18.73;;;9.60;79.10;;;;;;5046013;28;20205;-79
2022/03/03 09:18:00;;;;;;;34.80;18.77;;;9.60;78.80;;;;;;5046696;28;20217;-81
2022/03/03 09:20:30;;;;;;;34.43;19.60;;;9.70;78.90;;;;;;5045619;28;20226;-78
2022/03/03 09:22:58;;;;;;;33.57;17.60;;;9.70;78.70;;;;;;5045121;28;21186;-78
2022/03/03 09:25:27;;;;;;;37.50;19.53;;;9.80;79.00;;;;;;5045979;28;20199;-80
2022/03/03 09:27:56;;;;;;;34.47;20.13;;;9.80;79.30;;;;;;5046026;28;20199;-80
2022/03/03 09:30:24;;;;;;;34.87;19.57;;;9.90;79.40;;;;;;5045379;28;20594;-79
2022/03/03 09:32:52;;;;;;;37.43;19.33;;;10.00;79.20;;;;;;5047323;28;20210;-77
2022/03/03 09:35:21;;;;;;;38.63;20.50;;;10.10;79.10;;;;;;5045765;28;20209;-79
2022/03/03 09:37:51;;;;;;;35.50;19.63;;;10.20;79.20;;;;;;5046568;28;20253;-79
2022/03/03 09:40:19;;;;;;;39.67;19.63;;;10.20;79.10;;;;;;5045355;28;20198;-80
2022/03/03 09:42:58;;;;;;;34.10;19.60;;;10.30;78.70;;;;;;5046142;28;20253;-79
2022/03/03 09:45:27;;;;;;;37.53;20.83;;;10.30;78.20;;;;;;5045654;28;20844;-79
2022/03/03 09:47:57;;;;;;;40.50;20.33;;;10.30;78.20;;;;;;5044915;28;20213;-78
2022/03/03 09:50:28;;;;;;;42.97;21.17;;;10.40;77.90;;;;;;5044482;28;20211;-80
2022/03/03 09:52:57;;;;;;;39.90;20.60;;;10.30;77.20;;;;;;5046399;28;20206;-79
2022/03/03 09:55:26;;;;;;;37.97;21.90;;;10.30;77.50;;;;;;5044812;28;20211;-78
2022/03/03 09:57:54;;;;;;;43.97;21.77;;;10.40;77.60;;;;;;5043601;28;20203;-79
2022/03/03 10:00:23;;;;;;;42.03;22.23;;;10.30;77.20;;;;;;5046690;28;20290;-78
2022/03/03 10:03:00;;;;;;;43.53;22.37;;;10.40;78.60;;;;;;5044412;28;20372;-78
2022/03/03 10:05:34;;;;;;;38.83;21.20;;;10.40;77.90;;;;;;5043848;28;20260;-80
2022/03/03 10:08:05;;;;;;;43.83;22.73;;;10.40;78.00;;;;;;5043659;28;20195;-78
2022/03/03 10:10:35;;;;;;;41.27;21.13;;;10.50;78.30;;;;;;5043005;28;20207;-80
2022/03/03 10:13:06;;;;;;;37.40;19.23;;;10.50;78.50;;;;;;5045262;28;20903;-80
2022/03/03 10:15:36;;;;;;;40.17;20.70;;;10.60;78.40;;;;;;5044662;28;20305;-79
2022/03/03 10:18:06;;;;;;;35.60;20.87;;;10.60;78.30;;;;;;5043889;28;20206;-78
2022/03/03 10:20:49;;;;;;;38.80;21.27;;;10.60;77.60;;;;;;5044770;28;20190;-77
2022/03/03 10:23:23;;;;;;;40.33;22.07;;;10.70;78.00;;;;;;5043325;28;20195;-79
2022/03/03 10:25:54;;;;;;;40.30;21.93;;;10.70;78.30;;;;;;5043312;28;20199;-78
2022/03/03 10:28:26;;;;;;;42.13;22.30;;;10.80;78.30;;;;;;5044246;28;20839;-78
2022/03/03 10:30:59;;;;;;;38.57;21.50;;;10.90;78.00;;;;;;5044009;28;20219;-78
2022/03/03 10:33:31;;;;;;;42.43;22.07;;;11.00;77.50;;;;;;5043502;28;20207;-78
2022/03/03 10:36:09;;;;;;;40.70;23.00;;;11.00;77.20;;;;;;5042985;28;20614;-78
2022/03/03 10:38:57;;;;;;;41.97;22.27;;;11.10;76.30;;;;;;5043959;28;20253;-78
2022/03/03 10:41:35;;;;;;;43.50;23.13;;;11.10;76.00;;;;;;5043785;28;20648;-84
2022/03/03 10:44:05;;;;;;;43.03;23.07;;;11.20;76.60;;;;;;5044788;28;20205;-80
2022/03/03 10:46:36;;;;;;;40.00;22.87;;;11.30;76.80;;;;;;5044548;28;20216;-79
2022/03/03 10:49:21;;;;;;;40.37;23.30;;;11.40;76.60;;;;;;5043285;28;20590;-78
2022/03/03 10:51:52;;;;;;;42.67;23.67;;;11.50;76.90;;;;;;5045434;28;20565;-77
2022/03/03 10:54:22;;;;;;;44.73;24.37;;;11.60;76.00;;;;;;5046071;28;20648;-78
2022/03/03 10:57:08;;;;;;;42.53;23.07;;;11.70;76.00;;;;;;5044471;28;20564;-79
2022/03/03 10:59:41;;;;;;;41.10;23.90;;;11.80;76.10;;;;;;5043700;28;20203;-78
2022/03/03 11:02:18;;;;;;;39.00;22.27;;;11.90;76.10;;;;;;5045273;28;20218;-79
2022/03/03 11:04:47;;;;;;;40.50;21.67;;;12.00;75.10;;;;;;5042996;28;20465;-77
2022/03/03 11:07:18;;;;;;;35.97;20.97;;;12.10;74.80;;;;;;5041926;28;20213;-78
2022/03/03 11:09:49;;;;;;;32.37;19.47;;;12.20;74.80;;;;;;5044238;28;20207;-80
2022/03/03 11:12:19;;;;;;;36.47;20.60;;;12.30;74.40;;;;;;5043079;28;20195;-78
2022/03/03 11:14:48;;;;;;;33.10;19.30;;;12.40;73.60;;;;;;5044611;28;20194;-80
2022/03/03 11:17:21;;;;;;;31.77;19.43;;;12.40;73.30;;;;;;5044710;28;20436;-79
2022/03/03 11:19:59;;;;;;;30.60;18.33;;;12.50;72.50;;;;;;5042131;28;20244;-80
2022/03/03 11:22:32;;;;;;;36.90;19.03;;;12.60;72.20;;;;;;5042039;28;20287;-78
2022/03/03 11:25:04;;;;;;;28.47;17.87;;;12.60;71.90;;;;;;5040614;28;20199;-79
2022/03/03 11:27:35;;;;;;;28.40;17.13;;;12.60;71.10;;;;;;5039811;28;20249;-79
2022/03/03 11:30:26;;;;;;;24.20;14.23;;;12.70;71.50;;;;;;5046935;28;20688;-79
2022/03/03 11:33:20;;;;;;;24.20;14.80;;;12.70;67.70;;;;;;5040757;28;20199;-77
2022/03/03 11:35:50;;;;;;;24.20;14.23;;;12.70;67.10;;;;;;5031419;28;20199;-80
2022/03/03 11:38:18;;;;;;;26.53;14.60;;;12.70;68.00;;;;;;5041283;28;20199;-80
2022/03/03 11:40:57;;;;;;;24.30;12.83;;;12.70;67.80;;;;;;5043310;28;20191;-76
2022/03/03 11:43:26;;;;;;;19.83;12.17;;;12.70;67.80;;;;;;5043011;28;20199;-76
2022/03/03 11:45:56;;;;;;;25.63;13.30;;;12.70;66.50;;;;;;5041936;28;20205;-76
2022/03/03 11:48:25;;;;;;;22.47;13.40;;;12.70;65.90;;;;;;5041250;28;20647;-77
2022/03/03 11:50:54;;;;;;;25.40;14.43;;;12.60;65.60;;;;;;5043317;28;20311;-76
2022/03/03 11:53:24;;;;;;;32.53;15.87;;;12.60;65.20;;;;;;5040915;28;20199;-76
2022/03/03 11:56:00;;;;;;;27.43;14.13;;;12.60;65.80;;;;;;5042094;28;20644;-77
2022/03/03 11:58:31;;;;;;;22.53;13.77;;;12.50;65.40;;;;;;5039758;28;20483;-76
2022/03/03 12:01:09;;;;;;;27.53;14.37;;;12.60;65.40;;;;;;5043813;28;20187;-77
2022/03/03 12:04:03;;;;;;;23.23;13.90;;;12.50;64.70;;;;;;5041693;28;20237;-76
2022/03/03 12:06:43;;;;;;;27.37;14.97;;;12.50;64.50;;;;;;5041481;28;20229;-76
2022/03/03 12:09:20;;;;;;;25.73;14.93;;;12.50;64.40;;;;;;5040134;28;20194;-76
2022/03/03 12:11:50;;;;;;;21.47;12.93;;;12.40;64.50;;;;;;5042853;28;20234;-76
2022/03/03 12:14:31;;;;;;;19.93;12.33;;;12.40;63.00;;;;;;5041409;28;20195;-79
2022/03/03 12:17:35;;;;;;;21.00;11.63;;;12.40;62.60;;;;;;5042241;28;20202;-76
2022/03/03 12:20:34;;;;;;;21.47;11.77;;;12.40;62.30;;;;;;5041246;28;20213;-76
2022/03/03 12:23:35;;;;;;;23.43;13.63;;;12.50;62.90;;;;;;5042118;28;20256;-77
2022/03/03 12:26:05;;;;;;;23.02;13.25;;;12.50;63.60;;;;;;5041871;28;20502;-77
2022/03/03 12:28:40;;;;;;;20.13;11.53;;;12.50;63.50;;;;;;5041096;28;20842;-77
2022/03/03 12:31:26;;;;;;;20.90;12.27;;;12.60;64.10;;;;;;5042448;28;20720;-77
2022/03/03 12:33:56;;;;;;;18.73;10.97;;;12.70;63.30;;;;;;5041902;28;20199;-77
2022/03/03 12:36:25;;;;;;;20.83;10.80;;;12.70;63.00;;;;;;5041132;28;20202;-75
2022/03/03 12:38:54;;;;;;;21.10;11.97;;;12.80;62.40;;;;;;5040361;28;20202;-76
2022/03/03 12:41:26;;;;;;;19.60;10.40;;;12.80;61.20;;;;;;5042780;28;20195;-77
2022/03/03 12:44:04;;;;;;;17.77;10.60;;;12.90;60.90;;;;;;5045694;28;20194;-76
2022/03/03 12:46:33;;;;;;;14.77;9.13;;;13.00;61.10;;;;;;5045922;28;20898;-76
2022/03/03 12:49:04;;;;;;;14.70;9.43;;;13.00;59.60;;;;;;5044815;28;20203;-77
2022/03/03 12:51:33;;;;;;;17.70;10.50;;;13.10;59.70;;;;;;5045652;28;20210;-77
2022/03/03 12:54:05;;;;;;;14.40;7.93;;;13.20;60.80;;;;;;5045887;28;20232;-76